29°C Temp
14°C Dewpoint
40% Humidity
Temperature
16 KM/H
10 MPH
9 KTS
100°
Due East

Wind Speed
Clear
Conditions
Pressure 1015.92 (hPa) - 30 (in)
Visibility 6.2 (mi) - 10.0 (km)

Current Conditions
LGAV
Location 35(km)
Metar :LGAV 301350Z 10009KT CAVOK 29/14 Q1016 NOSIG
Fri 30th September 15:50 pm

Airport
  Metar Aviation API Data Provided by https://www.checkwx.com/ PHP scripts by weather34.com ©2022